createdAt,value
2023-03-30T00:00:58.987Z,101898.25
2023-03-30T00:03:28.065Z,101891.91
2023-03-30T00:05:58.900Z,101883.38
2023-03-30T00:08:27.964Z,101877.16
2023-03-30T00:11:03.981Z,101879.53
2023-03-30T00:13:34.099Z,101871.25
2023-03-30T00:16:02.456Z,101876.81
2023-03-30T00:18:30.021Z,101870.78
2023-03-30T00:20:58.578Z,101877.13
2023-03-30T00:23:27.128Z,101871.19
2023-03-30T00:25:54.831Z,101882.84
2023-03-30T00:28:22.369Z,101887.88
2023-03-30T00:30:49.955Z,101887.06
2023-03-30T00:33:17.738Z,101898.44
2023-03-30T00:35:55.248Z,101899.50
2023-03-30T00:38:23.316Z,101889.41
2023-03-30T00:40:53.454Z,101887.44
2023-03-30T00:43:21.787Z,101887.38
2023-03-30T00:45:49.941Z,101893.94
2023-03-30T00:48:25.029Z,101883.13
2023-03-30T00:50:57.198Z,101891.19
2023-03-30T00:53:30.047Z,101893.50
2023-03-30T00:55:58.918Z,101888.88
2023-03-30T00:58:28.592Z,101882.88
2023-03-30T01:00:58.420Z,101891.06
2023-03-30T01:03:35.238Z,101896.66
2023-03-30T01:06:07.546Z,101885.59
2023-03-30T01:08:36.521Z,101875.38
2023-03-30T01:11:07.038Z,101884.03
2023-03-30T01:13:38.237Z,101879.53
2023-03-30T01:16:30.473Z,101872.59
2023-03-30T01:19:33.269Z,101889.44
2023-03-30T01:22:22.678Z,101879.81
2023-03-30T01:25:15.242Z,101875.94
2023-03-30T01:28:04.630Z,101880.94
2023-03-30T01:31:05.167Z,101865.72
2023-03-30T01:34:11.535Z,101868.25
2023-03-30T01:36:57.958Z,101873.72
2023-03-30T01:40:19.084Z,101865.06
2023-03-30T01:43:05.042Z,101862.63
2023-03-30T01:45:52.236Z,101872.31
2023-03-30T01:48:29.817Z,101876.59
2023-03-30T01:51:03.159Z,101875.25
2023-03-30T01:53:33.635Z,101878.63
2023-03-30T01:56:07.982Z,101875.91
2023-03-30T01:58:46.970Z,101863.94
2023-03-30T02:01:17.640Z,101867.66
2023-03-30T02:03:49.597Z,101866.81
2023-03-30T02:06:27.177Z,101862.94
2023-03-30T02:08:59.377Z,101856.03
2023-03-30T02:11:29.693Z,101860.59
2023-03-30T02:13:59.936Z,101861.22
2023-03-30T02:16:51.874Z,101860.38
2023-03-30T02:19:19.885Z,101855.16
2023-03-30T02:21:48.062Z,101856.63
2023-03-30T02:24:20.953Z,101855.97
2023-03-30T02:26:51.727Z,101852.16
2023-03-30T02:29:22.347Z,101860.88
2023-03-30T02:31:54.463Z,101853.31
2023-03-30T02:34:31.152Z,101842.06
2023-03-30T02:37:11.730Z,101849.34
2023-03-30T02:40:13.449Z,101849.78
2023-03-30T02:43:00.044Z,101838.50
2023-03-30T02:45:30.601Z,101848.06
2023-03-30T02:48:13.106Z,101853.75
2023-03-30T02:50:47.190Z,101851.38
2023-03-30T02:53:38.192Z,101843.97
2023-03-30T02:56:19.282Z,101842.09
2023-03-30T02:59:01.299Z,101836.31
2023-03-30T03:01:44.288Z,101829.88
2023-03-30T03:04:18.911Z,101843.06
2023-03-30T03:07:05.367Z,101842.25
2023-03-30T03:09:33.040Z,101843.59
2023-03-30T03:12:01.022Z,101834.91
2023-03-30T03:14:36.870Z,101839.78
2023-03-30T03:17:05.884Z,101832.19
2023-03-30T03:19:43.485Z,101843.91
2023-03-30T03:22:11.509Z,101841.72
2023-03-30T03:24:41.162Z,101831.31
2023-03-30T03:27:17.850Z,101836.81
2023-03-30T03:30:20.709Z,101847.38
2023-03-30T03:32:59.734Z,101850.09
2023-03-30T03:35:29.981Z,101844.94
2023-03-30T03:37:58.467Z,101849.91
2023-03-30T03:40:26.368Z,101852.81
2023-03-30T03:42:55.313Z,101855.41
2023-03-30T03:45:22.747Z,101845.34
2023-03-30T03:47:59.691Z,101842.81
2023-03-30T03:50:43.130Z,101850.25
2023-03-30T03:53:13.212Z,101849.91
2023-03-30T03:55:41.590Z,101839.78
2023-03-30T03:58:08.994Z,101834.38
2023-03-30T04:00:36.844Z,101836.50
2023-03-30T04:03:05.474Z,101834.19
2023-03-30T04:05:33.074Z,101832.19
2023-03-30T04:08:01.409Z,101834.41
2023-03-30T04:10:29.967Z,101832.75
2023-03-30T04:13:15.938Z,101813.16
2023-03-30T04:16:12.375Z,101814.50
2023-03-30T04:19:01.556Z,101821.13
2023-03-30T04:21:41.137Z,101819.22
2023-03-30T04:24:18.006Z,101808.25
2023-03-30T04:26:54.730Z,101807.88
2023-03-30T04:29:51.134Z,101801.59
2023-03-30T04:33:05.533Z,101798.91
2023-03-30T04:35:56.881Z,101796.38
2023-03-30T04:38:58.471Z,101801.59
2023-03-30T04:41:54.311Z,101803.75
2023-03-30T04:44:44.413Z,101810.19
2023-03-30T04:47:38.780Z,101808.00
2023-03-30T04:50:29.886Z,101815.47
2023-03-30T04:53:17.086Z,101825.91
2023-03-30T04:55:51.839Z,101831.06
2023-03-30T04:58:37.889Z,101829.97
2023-03-30T05:01:24.504Z,101824.47
2023-03-30T05:03:58.765Z,101818.56
2023-03-30T05:06:49.779Z,101816.19
2023-03-30T05:09:29.429Z,101798.78
2023-03-30T05:12:16.583Z,101795.97
2023-03-30T05:14:52.225Z,101792.16
2023-03-30T05:17:40.392Z,101799.78
2023-03-30T05:20:27.171Z,101806.50
2023-03-30T05:23:12.127Z,101804.91
2023-03-30T05:25:58.114Z,101811.50
2023-03-30T05:28:34.594Z,101817.72
2023-03-30T05:31:28.100Z,101814.28
2023-03-30T05:34:15.219Z,101815.59
2023-03-30T05:37:11.077Z,101806.97
2023-03-30T05:39:43.575Z,101811.97
2023-03-30T05:42:43.605Z,101815.31
2023-03-30T05:45:40.183Z,101823.41
2023-03-30T05:48:28.786Z,101829.78
2023-03-30T05:51:25.500Z,101825.72
2023-03-30T05:54:11.318Z,101824.47
2023-03-30T05:56:52.340Z,101826.56
2023-03-30T05:59:52.940Z,101828.47
2023-03-30T06:02:40.983Z,101830.09
2023-03-30T06:05:15.102Z,101832.25
2023-03-30T06:07:45.794Z,101835.63
2023-03-30T06:10:13.574Z,101831.72
2023-03-30T06:12:43.648Z,101838.56
2023-03-30T06:15:25.481Z,101839.88
2023-03-30T06:17:59.380Z,101845.16
2023-03-30T06:20:27.607Z,101852.97
2023-03-30T06:22:56.646Z,101858.31
2023-03-30T06:25:25.742Z,101864.25
2023-03-30T06:27:54.505Z,101857.44
2023-03-30T06:30:22.578Z,101855.03
2023-03-30T06:32:53.970Z,101856.28
2023-03-30T06:35:25.466Z,101858.69
2023-03-30T06:37:54.214Z,101859.84
2023-03-30T06:40:22.283Z,101860.53
2023-03-30T06:42:52.191Z,101858.25
2023-03-30T06:45:29.386Z,101852.22
2023-03-30T06:47:57.173Z,101845.78
2023-03-30T06:50:25.037Z,101845.06
2023-03-30T06:53:00.015Z,101842.84
2023-03-30T06:55:34.089Z,101844.63
2023-03-30T06:58:01.758Z,101843.34
2023-03-30T07:00:29.772Z,101844.66
2023-03-30T07:03:19.926Z,101848.22
2023-03-30T07:06:13.672Z,101849.97
2023-03-30T07:08:41.552Z,101845.97
2023-03-30T07:11:11.973Z,101827.09
2023-03-30T07:13:41.249Z,101828.41
2023-03-30T07:16:10.103Z,101822.66
2023-03-30T07:18:37.510Z,101831.09
2023-03-30T07:21:06.063Z,101828.72
2023-03-30T07:23:39.593Z,101830.97
2023-03-30T07:26:08.756Z,101829.75
2023-03-30T07:28:47.050Z,101839.34
2023-03-30T07:31:17.265Z,101840.53
2023-03-30T07:33:44.880Z,101840.19
2023-03-30T07:36:16.954Z,101841.25
2023-03-30T07:38:45.356Z,101842.91
2023-03-30T07:41:15.123Z,101837.13
2023-03-30T07:43:43.881Z,101836.72
2023-03-30T07:46:14.760Z,101850.47
2023-03-30T07:48:47.260Z,101840.06
2023-03-30T07:51:16.073Z,101843.56
2023-03-30T07:54:00.001Z,101847.22
2023-03-30T07:56:39.497Z,101852.63
2023-03-30T07:59:08.262Z,101859.09
2023-03-30T08:01:38.971Z,101851.47
2023-03-30T08:04:29.687Z,101851.81
2023-03-30T08:06:57.985Z,101857.78
2023-03-30T08:09:25.962Z,101858.59
2023-03-30T08:11:53.539Z,101863.91
2023-03-30T08:14:21.417Z,101866.59
2023-03-30T08:16:48.944Z,101874.19
2023-03-30T08:19:16.648Z,101882.00
2023-03-30T08:21:44.072Z,101881.81
2023-03-30T08:24:11.617Z,101874.97
2023-03-30T08:26:39.420Z,101870.69
2023-03-30T08:29:07.192Z,101873.72
2023-03-30T08:31:34.643Z,101865.22
2023-03-30T08:34:04.421Z,101875.78
2023-03-30T08:36:31.802Z,101865.69
2023-03-30T08:38:59.164Z,101856.13
2023-03-30T08:41:29.640Z,101866.69
2023-03-30T08:44:23.671Z,101854.81
2023-03-30T08:46:51.842Z,101864.38
2023-03-30T08:49:20.541Z,101865.59
2023-03-30T08:51:52.002Z,101863.38
2023-03-30T08:54:21.968Z,101867.50
2023-03-30T08:57:07.749Z,101871.31
2023-03-30T08:59:45.597Z,101863.75
2023-03-30T09:02:23.334Z,101868.41
2023-03-30T09:05:02.143Z,101869.25
2023-03-30T09:07:36.952Z,101859.59
2023-03-30T09:10:10.444Z,101861.94
2023-03-30T09:12:49.054Z,101862.50
2023-03-30T09:15:19.381Z,101864.47
2023-03-30T09:18:02.043Z,101862.75
2023-03-30T09:20:33.681Z,101862.34
2023-03-30T09:23:03.759Z,101855.56
2023-03-30T09:26:08.774Z,101850.03
2023-03-30T09:28:49.693Z,101861.84
2023-03-30T09:31:29.649Z,101860.00
2023-03-30T09:34:02.245Z,101863.78
2023-03-30T09:36:39.893Z,101865.03
2023-03-30T09:39:18.416Z,101860.66
2023-03-30T09:42:13.327Z,101853.88
2023-03-30T09:44:48.941Z,101862.13
2023-03-30T09:47:24.897Z,101858.50
2023-03-30T09:50:00.956Z,101844.16
2023-03-30T09:52:32.141Z,101833.09
2023-03-30T09:55:23.564Z,101828.50
2023-03-30T09:57:52.331Z,101824.38
2023-03-30T10:00:32.916Z,101829.44
2023-03-30T10:03:04.352Z,101837.41
2023-03-30T10:05:34.252Z,101831.56
2023-03-30T10:08:05.574Z,101825.63
2023-03-30T10:10:37.569Z,101828.41
2023-03-30T10:13:17.981Z,101820.72
2023-03-30T10:15:51.871Z,101812.31
2023-03-30T10:18:23.968Z,101805.91
2023-03-30T10:21:02.618Z,101794.09
2023-03-30T10:23:33.461Z,101795.28
2023-03-30T10:26:03.985Z,101803.28
2023-03-30T10:28:34.004Z,101794.31
2023-03-30T10:31:05.442Z,101794.47
2023-03-30T10:33:40.024Z,101788.25
2023-03-30T10:36:09.481Z,101787.19
2023-03-30T10:38:40.794Z,101787.97
2023-03-30T10:41:15.944Z,101791.00
2023-03-30T10:43:44.760Z,101788.50
2023-03-30T10:46:20.530Z,101781.97
2023-03-30T10:49:13.043Z,101776.63
2023-03-30T10:51:47.092Z,101763.75
2023-03-30T10:54:24.969Z,101758.66
2023-03-30T10:56:57.484Z,101757.94
2023-03-30T10:59:26.168Z,101760.19
2023-03-30T11:02:32.783Z,101742.94
2023-03-30T11:05:22.782Z,101741.69
2023-03-30T11:07:53.166Z,101737.78
2023-03-30T11:10:31.595Z,101740.44
2023-03-30T11:13:03.936Z,101731.34
2023-03-30T11:15:44.238Z,101745.53
2023-03-30T11:18:23.431Z,101739.56
2023-03-30T11:20:59.738Z,101741.81
2023-03-30T11:23:46.806Z,101738.25
2023-03-30T11:26:22.035Z,101735.94
2023-03-30T11:29:16.762Z,101738.28
2023-03-30T11:31:59.866Z,101742.25
2023-03-30T11:34:46.220Z,101728.38
2023-03-30T11:37:27.529Z,101730.41
2023-03-30T11:40:05.200Z,101710.84
2023-03-30T11:42:32.961Z,101713.59
2023-03-30T11:45:02.695Z,101710.00
2023-03-30T11:47:30.623Z,101719.66
2023-03-30T11:50:45.299Z,101713.75
2023-03-30T11:53:19.181Z,101713.75
2023-03-30T11:56:34.474Z,101705.47
2023-03-30T11:59:06.269Z,101704.59
2023-03-30T12:01:42.870Z,101699.84
2023-03-30T12:04:13.169Z,101704.22
2023-03-30T12:07:10.229Z,101704.63
2023-03-30T12:09:56.746Z,101706.25
2023-03-30T12:12:39.210Z,101700.13
2023-03-30T12:15:40.495Z,101702.78
2023-03-30T12:18:27.125Z,101703.97
2023-03-30T12:21:19.527Z,101705.91
2023-03-30T12:23:55.638Z,101702.03
2023-03-30T12:26:27.549Z,101694.41
2023-03-30T12:29:35.991Z,101686.81
2023-03-30T12:31:54.755Z,101709.00
2023-03-30T12:34:24.178Z,101696.91
2023-03-30T12:37:02.456Z,101692.06
2023-03-30T12:39:49.050Z,101697.84
2023-03-30T12:42:35.985Z,101692.69
2023-03-30T12:45:15.220Z,101686.34
2023-03-30T12:48:06.962Z,101686.09
2023-03-30T12:50:35.088Z,101683.66
2023-03-30T12:53:23.752Z,101680.34
2023-03-30T12:55:53.569Z,101664.22
2023-03-30T12:59:01.156Z,101664.16
2023-03-30T13:01:58.616Z,101652.13
2023-03-30T13:04:32.893Z,101649.63
2023-03-30T13:07:07.394Z,101647.41
2023-03-30T13:09:50.891Z,101653.28
2023-03-30T13:12:32.553Z,101651.59
2023-03-30T13:15:02.564Z,101632.41
2023-03-30T13:17:53.690Z,101629.31
2023-03-30T13:20:30.267Z,101628.69
2023-03-30T13:23:13.201Z,101623.47
2023-03-30T13:26:02.858Z,101628.78
2023-03-30T13:28:55.410Z,101613.28
2023-03-30T13:31:57.270Z,101600.94
2023-03-30T13:34:51.470Z,101610.44
2023-03-30T13:38:00.393Z,101610.38
2023-03-30T13:40:57.936Z,101613.19
2023-03-30T13:43:42.295Z,101616.56
2023-03-30T13:46:33.145Z,101624.47
2023-03-30T13:49:09.881Z,101638.50
2023-03-30T13:51:41.364Z,101624.28
2023-03-30T13:54:14.105Z,101595.25
2023-03-30T13:56:47.277Z,101586.00
2023-03-30T13:59:26.536Z,101574.00
2023-03-30T14:01:57.187Z,101555.91
2023-03-30T14:04:32.881Z,101544.53
2023-03-30T14:07:30.282Z,101531.19
2023-03-30T14:10:12.263Z,101524.91
2023-03-30T14:12:41.170Z,101543.59
2023-03-30T14:15:26.704Z,101564.88
2023-03-30T14:17:57.890Z,101562.16
2023-03-30T14:20:47.105Z,101557.56
2023-03-30T14:23:41.533Z,101545.34
2023-03-30T14:26:22.735Z,101534.78
2023-03-30T14:28:56.315Z,101536.44
2023-03-30T14:31:23.984Z,101535.81
2023-03-30T14:33:51.444Z,101528.41
2023-03-30T14:36:21.321Z,101500.56
2023-03-30T14:38:51.636Z,101517.19
2023-03-30T14:41:28.444Z,101510.56
2023-03-30T14:43:59.793Z,101502.47
2023-03-30T14:46:42.719Z,101504.13
2023-03-30T14:49:23.660Z,101499.75
2023-03-30T14:51:53.221Z,101496.19
2023-03-30T14:54:24.389Z,101507.22
2023-03-30T14:57:05.491Z,101515.47
2023-03-30T14:59:45.443Z,101523.81
2023-03-30T15:02:21.388Z,101529.00
2023-03-30T15:04:50.796Z,101524.41
2023-03-30T15:07:20.968Z,101524.16
2023-03-30T15:09:54.608Z,101519.94
2023-03-30T15:12:29.670Z,101508.81
2023-03-30T15:15:02.799Z,101504.63
2023-03-30T15:17:32.510Z,101501.81
2023-03-30T15:20:02.218Z,101489.44
2023-03-30T15:22:36.932Z,101495.81
2023-03-30T15:25:11.168Z,101485.16
2023-03-30T15:27:42.585Z,101490.84
2023-03-30T15:30:28.493Z,101487.78
2023-03-30T15:32:57.531Z,101482.03
2023-03-30T15:35:31.385Z,101486.06
2023-03-30T15:38:02.877Z,101488.00
2023-03-30T15:40:41.639Z,101480.91
2023-03-30T15:43:16.929Z,101467.94
2023-03-30T15:45:48.901Z,101482.44
2023-03-30T15:48:21.877Z,101473.16
2023-03-30T15:50:55.065Z,101468.22
2023-03-30T15:53:34.424Z,101453.00
2023-03-30T15:56:03.648Z,101443.88
2023-03-30T15:58:34.002Z,101428.34
2023-03-30T16:01:03.295Z,101447.59
2023-03-30T16:03:40.277Z,101447.50
2023-03-30T16:06:13.134Z,101444.03
2023-03-30T16:08:45.216Z,101439.56
2023-03-30T16:11:16.198Z,101443.19
2023-03-30T16:13:46.440Z,101442.69
2023-03-30T16:16:15.969Z,101440.09
2023-03-30T16:18:43.825Z,101440.78
2023-03-30T16:21:11.500Z,101438.47
2023-03-30T16:23:39.715Z,101439.09
2023-03-30T16:26:09.700Z,101447.34
2023-03-30T16:28:37.802Z,101442.88
2023-03-30T16:31:12.940Z,101444.34
2023-03-30T16:33:40.897Z,101441.03
2023-03-30T16:36:14.527Z,101432.75
2023-03-30T16:38:42.830Z,101443.34
2023-03-30T16:41:14.466Z,101441.00
2023-03-30T16:43:42.058Z,101446.91
2023-03-30T16:46:14.306Z,101435.84
2023-03-30T16:48:41.921Z,101433.84
2023-03-30T16:51:14.493Z,101431.84
2023-03-30T16:53:42.312Z,101435.53
2023-03-30T16:56:17.637Z,101421.91
2023-03-30T16:58:46.391Z,101431.44
2023-03-30T17:01:18.364Z,101426.16
2023-03-30T17:03:46.855Z,101434.16
2023-03-30T17:06:16.262Z,101435.22
2023-03-30T17:08:43.630Z,101436.06
2023-03-30T17:11:13.405Z,101450.09
2023-03-30T17:13:41.944Z,101429.00
2023-03-30T17:16:14.599Z,101423.50
2023-03-30T17:18:43.361Z,101423.16
2023-03-30T17:21:16.229Z,101422.53
2023-03-30T17:23:45.158Z,101423.19
2023-03-30T17:26:13.177Z,101422.41
2023-03-30T17:28:40.974Z,101420.31
2023-03-30T17:31:18.688Z,101427.38
2023-03-30T17:33:47.689Z,101421.06
2023-03-30T17:36:22.627Z,101421.75
2023-03-30T17:38:50.788Z,101407.34
2023-03-30T17:41:19.679Z,101416.13
2023-03-30T17:43:48.384Z,101415.09
2023-03-30T17:46:18.612Z,101420.78
2023-03-30T17:48:46.769Z,101428.66
2023-03-30T17:51:14.550Z,101429.09
2023-03-30T17:53:44.780Z,101418.19
2023-03-30T17:56:13.402Z,101417.31
2023-03-30T17:58:41.054Z,101422.41
2023-03-30T18:01:12.355Z,101425.34
2023-03-30T18:03:40.799Z,101427.88
2023-03-30T18:06:11.678Z,101422.44
2023-03-30T18:08:40.525Z,101415.06
2023-03-30T18:11:08.190Z,101409.13
2023-03-30T18:13:37.020Z,101406.81
2023-03-30T18:16:04.587Z,101401.13
2023-03-30T18:18:32.402Z,101398.41
2023-03-30T18:21:03.167Z,101403.00
2023-03-30T18:23:34.049Z,101399.88
2023-03-30T18:26:03.848Z,101420.09
2023-03-30T18:28:32.601Z,101421.56
2023-03-30T18:31:03.128Z,101427.50
2023-03-30T18:33:31.084Z,101424.97
2023-03-30T18:35:59.580Z,101418.22
2023-03-30T18:38:29.326Z,101424.75
2023-03-30T18:41:00.886Z,101430.22
2023-03-30T18:43:28.428Z,101423.69
2023-03-30T18:46:01.515Z,101423.88
2023-03-30T18:48:30.500Z,101427.06
2023-03-30T18:50:57.998Z,101424.13
2023-03-30T18:53:28.300Z,101411.06
2023-03-30T18:55:58.647Z,101411.88
2023-03-30T18:58:28.489Z,101411.19
2023-03-30T19:00:56.097Z,101417.78
2023-03-30T19:03:25.084Z,101417.13
2023-03-30T19:05:53.739Z,101418.41
2023-03-30T19:08:23.706Z,101417.53
2023-03-30T19:10:54.924Z,101420.72
2023-03-30T19:13:23.608Z,101426.41
2023-03-30T19:15:52.431Z,101426.66
2023-03-30T19:18:20.784Z,101427.06
2023-03-30T19:20:49.927Z,101435.50
2023-03-30T19:23:21.492Z,101434.44
2023-03-30T19:25:49.227Z,101442.66
2023-03-30T19:28:17.069Z,101448.13
2023-03-30T19:30:45.377Z,101462.88
2023-03-30T19:33:16.375Z,101455.50
2023-03-30T19:35:45.351Z,101461.19
2023-03-30T19:38:14.398Z,101466.84
2023-03-30T19:40:42.638Z,101456.97
2023-03-30T19:43:10.527Z,101461.19
2023-03-30T19:45:38.771Z,101460.75
2023-03-30T19:48:06.229Z,101467.69
2023-03-30T19:50:33.804Z,101466.66
2023-03-30T19:53:01.605Z,101471.72
2023-03-30T19:55:29.006Z,101470.63
2023-03-30T19:57:56.843Z,101468.13
2023-03-30T20:00:24.401Z,101465.19
2023-03-30T20:02:54.287Z,101463.28
2023-03-30T20:05:24.321Z,101450.19
2023-03-30T20:07:52.390Z,101451.19
2023-03-30T20:10:25.614Z,101461.34
2023-03-30T20:12:53.856Z,101468.25
2023-03-30T20:15:23.516Z,101472.06
2023-03-30T20:17:56.304Z,101480.69
2023-03-30T20:20:25.522Z,101485.28
2023-03-30T20:22:56.391Z,101478.91
2023-03-30T20:25:24.810Z,101482.88
2023-03-30T20:27:53.251Z,101484.50
2023-03-30T20:30:20.826Z,101487.25
2023-03-30T20:33:00.196Z,101488.28
2023-03-30T20:35:36.515Z,101502.16
2023-03-30T20:38:06.270Z,101498.13
2023-03-30T20:40:34.604Z,101493.66
2023-03-30T20:43:10.072Z,101491.41
2023-03-30T20:45:48.564Z,101498.25
2023-03-30T20:48:26.450Z,101500.88
2023-03-30T20:50:55.827Z,101496.28
2023-03-30T20:53:23.737Z,101497.53
2023-03-30T20:55:51.737Z,101494.13
2023-03-30T20:58:22.269Z,101491.81
2023-03-30T21:00:53.393Z,101481.50
2023-03-30T21:03:21.426Z,101472.19
